Time;durP1;ratioP1;P1;durP2;ratioP2;P2;SDS_P1;SDS_P2;PMS_P1;PMS_P2;Temp;Humidity;BMP_temperature;BMP_pressure;BME280_temperature;BME280_humidity;BME280_pressure;Samples;Min_cycle;Max_cycle;Signal;HPM_P1;HPM_P2
2022/09/12 00:01:38;;;;;;;12.10;10.30;;;;;;;15.42;97.65;97410.41;10414918;28;20076;-56
2022/09/12 00:06:37;;;;;;;;;;;;;;;15.32;97.23;97411.53;10416165;28;20103;-56
2022/09/12 00:11:38;;;;;;;17.15;10.73;;;;;;;15.22;97.26;97410.91;10415214;28;19912;-56
2022/09/12 00:16:38;;;;;;;16.10;10.75;;;;;;;15.14;97.50;97412.88;10415006;28;20064;-56
2022/09/12 00:21:38;;;;;;;16.02;12.00;;;;;;;15.05;97.98;97408.72;10414504;28;20060;-56
2022/09/12 00:26:37;;;;;;;16.67;10.95;;;;;;;14.98;97.75;97421.06;10414591;28;20526;-56
2022/09/12 00:31:37;;;;;;;;;;;;;;;14.90;98.50;97419.56;10414040;28;20036;-56
2022/09/12 00:36:36;;;;;;;14.73;11.43;;;;;;;14.86;98.39;97412.69;10414386;28;20414;-56
2022/09/12 00:41:38;;;;;;;20.42;11.30;;;;;;;14.82;98.24;97415.34;10414162;28;20075;-56
2022/09/12 00:46:43;;;;;;;15.05;11.35;;;;;;;14.73;98.59;97406.88;10414178;28;20138;-56
2022/09/12 00:51:48;;;;;;;17.77;11.13;;;;;;;14.68;98.97;97416.53;10413829;28;20072;-56
2022/09/12 00:56:52;;;;;;;15.70;10.95;;;;;;;14.63;98.80;97419.25;10414303;28;20076;-56
2022/09/12 01:01:51;;;;;;;14.82;11.65;;;;;;;14.41;98.48;97396.25;10413657;28;20075;-56
2022/09/12 01:06:51;;;;;;;14.60;10.73;;;;;;;14.45;98.68;97415.28;10415122;28;20466;-56
2022/09/12 01:11:52;;;;;;;22.55;12.88;;;;;;;14.34;98.99;97419.91;10422217;28;20477;-56
2022/09/12 01:16:51;;;;;;;18.33;12.90;;;;;;;14.28;99.01;97409.59;10421892;28;20064;-56
2022/09/12 01:21:55;;;;;;;;;;;;;;;14.22;99.43;97397.53;10421913;28;20068;-56
2022/09/12 01:27:26;;;;;;;27.98;17.90;;;;;;;14.15;99.97;97406.38;10421487;28;19947;-56
2022/09/12 01:32:34;;;;;;;;;;;;;;;14.04;100.00;97405.75;10421636;28;20052;-56
2022/09/12 01:37:53;;;;;;;34.05;19.15;;;;;;;13.93;100.00;97409.41;10420723;28;19962;-56
2022/09/12 01:43:25;;;;;;;37.70;20.40;;;;;;;13.94;100.00;97403.31;10420681;28;20067;-56
2022/09/12 01:48:39;;;;;;;34.00;21.13;;;;;;;13.99;100.00;97411.91;10409715;28;20089;-56
2022/09/12 01:53:44;;;;;;;32.05;20.38;;;;;;;14.09;100.00;97409.97;10420482;28;20060;-56
2022/09/12 01:58:49;;;;;;;29.67;19.05;;;;;;;14.07;100.00;97401.31;10420236;28;20064;-56
2022/09/12 02:03:56;;;;;;;32.63;20.38;;;;;;;14.15;100.00;97403.78;10419835;28;20072;-56
2022/09/12 02:09:02;;;;;;;23.45;16.45;;;;;;;14.20;100.00;97402.78;10419269;28;20080;-57
2022/09/12 02:14:12;;;;;;;26.95;17.38;;;;;;;14.26;100.00;97401.78;10419804;28;20060;-55
2022/09/12 02:19:16;;;;;;;20.13;13.45;;;;;;;14.30;100.00;97399.97;10418343;28;20090;-55
2022/09/12 02:24:16;;;;;;;19.17;13.57;;;;;;;14.27;100.00;97406.13;10419540;28;20048;-55
2022/09/12 02:29:16;;;;;;;20.45;14.00;;;;;;;14.20;100.00;97410.59;10418842;28;20061;-55
2022/09/12 02:34:38;;;;;;;20.42;14.40;;;;;;;14.12;100.00;97399.47;10419668;28;20492;-55
2022/09/12 02:39:38;;;;;;;22.58;14.57;;;;;;;14.14;100.00;97402.03;10418505;28;20071;-55
2022/09/12 02:44:37;;;;;;;23.77;15.77;;;;;;;14.14;100.00;97407.25;10418531;28;20479;-55
2022/09/12 02:49:36;;;;;;;27.23;17.77;;;;;;;14.11;100.00;97400.38;10417955;28;20511;-55
2022/09/12 02:54:36;;;;;;;23.48;16.73;;;;;;;14.11;100.00;97409.94;10417743;28;20076;-55
2022/09/12 02:59:35;;;;;;;23.45;15.43;;;;;;;14.11;100.00;97404.72;10416532;28;20067;-55
2022/09/12 03:04:40;;;;;;;20.52;15.77;;;;;;;14.16;100.00;97408.09;10400240;28;20043;-57
2022/09/12 03:09:51;;;;;;;21.90;16.35;;;;;;;14.22;100.00;97407.09;10416915;28;20068;-55
2022/09/12 03:15:02;;;;;;;23.55;16.20;;;;;;;14.24;100.00;97408.81;10416776;28;20064;-55
2022/09/12 03:20:10;;;;;;;20.60;14.93;;;;;;;14.16;100.00;97390.69;10417084;28;20079;-55
2022/09/12 03:25:31;;;;;;;18.50;13.63;;;;;;;13.87;100.00;97404.34;10416397;28;20080;-55
2022/09/12 03:30:30;;;;;;;22.90;15.82;;;;;;;13.85;100.00;97416.53;10414260;28;20076;-55
2022/09/12 03:35:29;;;;;;;18.27;13.32;;;;;;;13.82;100.00;97405.28;10416560;28;20507;-55
2022/09/12 03:40:28;;;;;;;19.13;13.57;;;;;;;13.80;100.00;97417.50;10415999;28;20488;-55
2022/09/12 03:45:27;;;;;;;14.43;11.05;;;;;;;13.64;100.00;97406.53;10415694;28;20039;-55
2022/09/12 03:50:26;;;;;;;;;;;;;;;13.66;100.00;97428.22;10416520;28;20044;-55
2022/09/12 03:55:25;;;;;;;16.23;10.60;;;;;;;13.64;100.00;97412.59;10416033;28;20023;-55
2022/09/12 04:00:24;;;;;;;18.05;12.60;;;;;;;13.74;100.00;97421.09;10414542;28;20068;-55
2022/09/12 04:05:24;;;;;;;20.75;13.13;;;;;;;13.80;100.00;97421.00;10414862;28;20097;-55
2022/09/12 04:10:23;;;;;;;20.60;13.57;;;;;;;13.93;100.00;97417.22;10415301;28;20060;-55
2022/09/12 04:15:22;;;;;;;19.58;13.57;;;;;;;14.05;100.00;97425.72;10414613;28;20035;-55
2022/09/12 04:20:21;;;;;;;18.17;13.98;;;;;;;14.12;100.00;97425.53;10414740;28;20039;-55
2022/09/12 04:25:20;;;;;;;22.30;13.43;;;;;;;14.21;100.00;97429.72;10414030;28;20064;-55
2022/09/12 04:30:19;;;;;;;22.45;14.02;;;;;;;14.14;100.00;97428.13;10413751;28;20028;-55
2022/09/12 04:35:18;;;;;;;19.75;13.43;;;;;;;14.09;100.00;97435.22;10388693;28;20051;-55
2022/09/12 04:40:17;;;;;;;17.58;12.63;;;;;;;14.05;100.00;97441.38;10372913;28;20177;-55
2022/09/12 04:45:16;;;;;;;19.38;14.20;;;;;;;13.94;100.00;97442.44;10371811;28;20064;-55
2022/09/12 04:50:15;;;;;;;;;;;;;;;13.95;100.00;97451.97;10373559;28;20119;-55
2022/09/12 04:55:14;;;;;;;18.38;13.15;;;;;;;13.92;100.00;97454.66;10370879;28;20378;-55
2022/09/12 05:00:14;;;;;;;20.02;12.73;;;;;;;14.07;100.00;97450.03;10371834;28;20029;-55
2022/09/12 05:05:13;;;;;;;19.70;13.02;;;;;;;14.25;100.00;97462.72;10371862;28;20071;-55
2022/09/12 05:10:12;;;;;;;16.25;12.73;;;;;;;14.24;100.00;97460.13;10371507;28;20094;-55
2022/09/12 05:15:10;;;;;;;;;;;;;;;14.26;100.00;97453.97;10387378;28;20411;-55
2022/09/12 05:20:11;;;;;;;18.90;14.65;;;;;;;14.38;100.00;97451.13;10371431;28;19916;-55
2022/09/12 05:25:10;;;;;;;17.65;13.70;;;;;;;14.47;100.00;97449.19;10375848;28;20064;-55
2022/09/12 05:30:10;;;;;;;21.52;15.07;;;;;;;14.72;100.00;97453.03;10388516;28;20068;-55
2022/09/12 05:35:11;;;;;;;19.38;14.02;;;;;;;14.85;99.48;97447.53;10371323;28;20053;-55
2022/09/12 05:40:10;;;;;;;21.75;15.05;;;;;;;14.91;99.19;97436.94;10364703;28;20061;-57
2022/09/12 05:45:09;;;;;;;19.38;13.80;;;;;;;15.13;98.33;97438.16;10323584;28;20138;-57
2022/09/12 05:50:09;;;;;;;16.67;13.73;;;;;;;14.89;96.93;97434.34;10359347;28;20546;-57
2022/09/12 05:55:08;;;;;;;15.10;11.55;;;;;;;15.01;97.02;97434.09;10389540;28;20064;-57
2022/09/12 06:00:08;;;;;;;15.30;11.60;;;;;;;15.21;96.74;97438.81;10409244;28;20530;-57
2022/09/12 06:05:08;;;;;;;14.48;10.55;;;;;;;15.39;94.63;97440.13;10407466;28;20380;-57
2022/09/12 06:10:08;;;;;;;14.98;11.27;;;;;;;15.47;93.81;97439.91;10401200;28;20063;-57
2022/09/12 06:15:08;;;;;;;16.25;10.35;;;;;;;15.30;93.19;97449.97;10417282;28;20075;-57
2022/09/12 06:20:07;;;;;;;13.70;11.35;;;;;;;15.16;93.67;97434.59;10389369;28;20067;-57
2022/09/12 06:25:07;;;;;;;15.50;11.50;;;;;;;15.21;94.17;97446.66;10377813;28;20073;-57
2022/09/12 06:30:07;;;;;;;16.27;12.13;;;;;;;15.46;94.02;97432.97;10381771;28;20052;-57
2022/09/12 06:35:06;;;;;;;13.43;11.95;;;;;;;15.61;93.30;97435.19;10378840;28;20061;-57
2022/09/12 06:40:08;;;;;;;15.88;12.55;;;;;;;15.54;92.83;97436.25;10358699;28;20457;-57
2022/09/12 06:45:08;;;;;;;13.98;11.57;;;;;;;15.43;92.97;97440.88;10376349;28;20072;-57
2022/09/12 06:50:07;;;;;;;17.70;12.23;;;;;;;15.13;95.10;97440.78;10363678;28;20063;-57
2022/09/12 06:55:07;;;;;;;15.98;12.85;;;;;;;15.13;95.48;97443.38;10404042;28;20063;-57
2022/09/12 07:00:07;;;;;;;13.75;11.30;;;;;;;15.17;95.28;97438.94;10374999;28;20068;-57
2022/09/12 07:05:07;;;;;;;14.70;11.35;;;;;;;15.28;95.11;97441.28;10410496;28;20052;-57
2022/09/12 07:10:06;;;;;;;14.27;10.00;;;;;;;15.41;94.40;97443.56;10406081;28;20075;-57
2022/09/12 07:15:05;;;;;;;13.73;10.07;;;;;;;15.59;93.75;97449.19;10416243;28;20052;-57
2022/09/12 07:20:05;;;;;;;14.98;11.15;;;;;;;15.79;93.10;97448.72;10395026;28;20060;-57
2022/09/12 07:25:05;;;;;;;14.32;10.52;;;;;;;16.22;92.17;97447.53;10411693;28;20140;-57
2022/09/12 07:30:05;;;;;;;12.70;9.60;;;;;;;16.71;89.92;97436.44;10386514;28;20060;-57
2022/09/12 07:35:04;;;;;;;12.60;8.57;;;;;;;17.13;87.23;97437.81;10378993;28;20480;-57
2022/09/12 07:40:03;;;;;;;10.88;7.88;;;;;;;17.53;85.90;97428.59;10375794;28;20064;-57
2022/09/12 07:45:03;;;;;;;11.85;7.18;;;;;;;17.95;81.43;97428.06;10375095;28;20816;-57
2022/09/12 07:50:02;;;;;;;11.82;7.75;;;;;;;18.35;80.06;97432.69;10373573;28;20076;-57
2022/09/12 07:55:01;;;;;;;10.57;8.00;;;;;;;18.91;79.70;97434.09;10398363;28;20063;-57
2022/09/12 08:00:01;;;;;;;9.98;6.55;;;;;;;19.37;77.08;97433.97;10374115;28;20079;-55
2022/09/12 08:05:00;;;;;;;8.82;5.47;;;;;;;19.43;71.67;97424.06;10407702;28;20080;-56
2022/09/12 08:09:59;;;;;;;10.05;5.80;;;;;;;19.73;70.70;97430.78;10390470;28;20079;-56
2022/09/12 08:14:58;;;;;;;7.90;4.55;;;;;;;19.79;68.40;97431.38;10373163;28;20060;-56
2022/09/12 08:19:57;;;;;;;3.75;3.35;;;;;;;19.83;64.42;97422.38;10409121;28;20048;-56
2022/09/12 08:24:56;;;;;;;5.82;3.67;;;;;;;20.11;63.05;97425.59;10414401;28;20036;-56
2022/09/12 08:29:55;;;;;;;4.75;2.80;;;;;;;20.21;60.56;97419.84;10384658;28;20467;-56
2022/09/12 08:34:53;;;;;;;2.58;2.38;;;;;;;20.31;57.97;97417.66;10373135;28;20017;-56
2022/09/12 08:39:52;;;;;;;2.80;2.45;;;;;;;20.56;58.87;97406.00;10397096;28;20064;-56
2022/09/12 08:45:00;;;;;;;3.80;2.20;;;;;;;20.59;56.02;97400.59;10413730;28;20040;-56
2022/09/12 08:50:14;;;;;;;4.65;2.28;;;;;;;20.86;57.33;97403.69;10408290;28;20080;-56
2022/09/12 08:55:43;;;;;;;3.90;1.92;;;;;;;21.03;52.80;97390.56;10381147;28;20064;-56
2022/09/12 09:01:00;;;;;;;3.83;2.00;;;;;;;21.33;54.34;97392.63;10372338;28;20072;-55
2022/09/12 09:06:14;;;;;;;6.53;2.15;;;;;;;21.44;53.48;97384.16;10372483;28;20083;-56
2022/09/12 09:11:36;;;;;;;2.53;1.70;;;;;;;21.17;49.69;97386.34;10405551;28;20075;-56
2022/09/12 09:16:38;;;;;;;1.90;1.52;;;;;;;20.90;51.60;97379.72;10413865;28;20063;-56
2022/09/12 09:21:46;;;;;;;3.03;1.80;;;;;;;20.80;51.95;97367.09;10405562;28;20080;-56
2022/09/12 09:27:05;;;;;;;3.35;2.10;;;;;;;20.79;52.39;97339.84;10376289;28;20092;-56
2022/09/12 09:32:15;;;;;;;2.03;1.60;;;;;;;20.98;51.79;97365.31;10376305;28;20072;-56
2022/09/12 09:37:19;;;;;;;2.15;1.75;;;;;;;21.25;51.29;97363.97;10378398;28;20079;-56
2022/09/12 09:42:33;;;;;;;3.40;1.77;;;;;;;21.20;49.59;97365.13;10382713;28;20072;-56
2022/09/12 09:47:32;;;;;;;2.78;2.13;;;;;;;21.43;49.76;97354.28;10382917;28;20060;-56
2022/09/12 09:52:31;;;;;;;2.22;1.40;;;;;;;21.31;48.36;97352.25;10392695;28;20116;-56
2022/09/12 09:57:33;;;;;;;1.65;1.50;;;;;;;21.50;48.25;97342.47;10377967;28;20488;-56
2022/09/12 10:02:32;;;;;;;1.50;1.40;;;;;;;21.72;46.75;97342.19;10377355;28;20084;-56
2022/09/12 10:07:31;;;;;;;1.60;1.20;;;;;;;21.93;46.82;97342.84;10378187;28;20071;-56
2022/09/12 10:12:30;;;;;;;1.65;1.42;;;;;;;22.32;46.88;97330.22;10377037;28;20163;-56
2022/09/12 10:17:31;;;;;;;3.80;1.60;;;;;;;22.74;45.32;97342.88;10377436;28;20025;-56
2022/09/12 10:22:30;;;;;;;1.50;1.40;;;;;;;22.30;42.93;97338.25;10386194;28;20553;-56
2022/09/12 10:27:31;;;;;;;2.05;1.50;;;;;;;22.41;44.18;97328.84;10410356;28;20053;-56
2022/09/12 10:32:45;;;;;;;1.40;1.30;;;;;;;22.55;43.11;97327.16;10376953;28;20075;-56
2022/09/12 10:38:01;;;;;;;2.33;2.03;;;;;;;22.25;43.51;97332.38;10377370;28;20076;-56
2022/09/12 10:43:01;;;;;;;2.90;2.70;;;;;;;22.23;42.82;97314.88;10366651;28;20539;-56
2022/09/12 10:48:21;;;;;;;2.50;2.30;;;;;;;22.31;42.58;97308.22;10335510;28;20516;-56
2022/09/12 10:53:24;;;;;;;4.25;2.42;;;;;;;22.76;44.07;97311.91;10367184;28;20091;-56
2022/09/12 10:58:32;;;;;;;2.58;2.28;;;;;;;22.77;41.52;97313.59;10377984;28;20508;-56
2022/09/12 11:04:15;;;;;;;4.83;2.30;;;;;;;22.52;42.38;97319.38;10376806;28;20068;-56
2022/09/12 11:09:28;;;;;;;3.83;1.90;;;;;;;22.51;41.59;97320.34;10338490;28;20508;-56
2022/09/12 11:14:44;;;;;;;2.60;2.40;;;;;;;22.34;43.12;97323.94;10376359;28;20072;-56
2022/09/12 11:19:56;;;;;;;2.78;1.88;;;;;;;22.50;43.76;97329.19;10375715;28;20118;-56
2022/09/12 11:25:04;;;;;;;6.40;2.25;;;;;;;22.49;44.71;97319.56;10379641;28;20069;-56
2022/09/12 11:30:11;;;;;;;8.75;6.05;;;;;;;21.66;44.64;97331.94;10352436;28;20148;-56
2022/09/12 11:35:31;;;;;;;2.43;2.23;;;;;;;20.83;43.28;97330.00;10341752;28;20057;-56
2022/09/12 11:40:43;;;;;;;11.27;4.88;;;;;;;20.68;43.97;97328.94;10344768;28;20075;-56
2022/09/12 11:45:44;;;;;;;3.58;2.92;;;;;;;20.69;44.05;97325.41;10355305;28;20080;-56
2022/09/12 11:50:43;;;;;;;6.30;3.08;;;;;;;20.72;45.15;97325.25;10404251;28;20489;-56
2022/09/12 11:55:53;;;;;;;3.53;2.75;;;;;;;20.57;45.78;97324.22;10373304;28;20084;-56
2022/09/12 12:00:56;;;;;;;2.60;2.40;;;;;;;20.65;44.39;97332.59;10373529;28;20567;-56
2022/09/12 12:06:04;;;;;;;3.92;2.80;;;;;;;20.80;45.12;97319.63;10373080;28;20083;-56
2022/09/12 12:11:06;;;;;;;;;;;;;;;21.03;43.92;97321.09;10373827;28;20051;-56
2022/09/12 12:16:13;;;;;;;8.43;5.93;;;;;;;21.47;42.83;97321.50;10373339;28;20002;-56
2022/09/12 12:21:30;;;;;;;3.00;2.70;;;;;;;21.47;41.88;97315.38;10373664;28;20518;-56
2022/09/12 12:26:56;;;;;;;3.90;3.47;;;;;;;21.32;41.70;97322.28;10372875;28;20084;-56
2022/09/12 12:31:58;;;;;;;6.28;4.50;;;;;;;21.25;42.67;97318.25;10366117;28;20467;-56
2022/09/12 12:37:18;;;;;;;6.88;3.78;;;;;;;21.06;42.85;97316.53;10372693;28;20072;-56
2022/09/12 12:42:32;;;;;;;4.70;4.05;;;;;;;21.27;43.37;97314.63;10372293;28;20069;-55
2022/09/12 12:47:39;;;;;;;4.43;3.17;;;;;;;21.28;42.47;97315.47;10372420;28;20076;-55
2022/09/12 12:52:47;;;;;;;4.38;3.30;;;;;;;21.76;42.73;97308.56;10372581;28;20073;-56
2022/09/12 12:57:54;;;;;;;4.90;3.70;;;;;;;22.12;42.50;97316.31;10386257;28;20076;-56
2022/09/12 13:03:03;;;;;;;5.32;3.67;;;;;;;22.44;43.39;97316.34;10414678;28;20064;-57
2022/09/12 13:08:09;;;;;;;4.72;3.00;;;;;;;22.38;41.32;97314.03;10404235;28;20578;-56
2022/09/12 13:13:08;;;;;;;4.25;3.20;;;;;;;22.07;42.15;97320.16;10380610;28;20488;-57
2022/09/12 13:18:14;;;;;;;6.40;5.55;;;;;;;21.60;43.66;97331.44;10380711;28;20384;-56
2022/09/12 13:23:26;;;;;;;8.02;7.22;;;;;;;21.48;44.18;97328.50;10380338;28;20072;-56
2022/09/12 13:28:27;;;;;;;11.65;6.95;;;;;;;21.20;45.23;97325.53;10378713;28;20061;-55
2022/09/12 13:33:38;;;;;;;9.63;7.03;;;;;;;21.12;45.33;97318.88;10380017;28;20503;-56
2022/09/12 13:38:52;;;;;;;7.78;6.82;;;;;;;20.92;45.47;97304.03;10379755;28;20068;-56
2022/09/12 13:43:52;;;;;;;7.13;6.43;;;;;;;20.95;46.36;97318.84;10379540;28;20491;-56
2022/09/12 13:48:51;;;;;;;6.82;5.78;;;;;;;21.07;44.67;97320.00;10379424;28;20089;-56
2022/09/12 13:53:52;;;;;;;6.88;6.13;;;;;;;21.24;44.42;97314.78;10378059;28;20068;-56
2022/09/12 13:58:57;;;;;;;8.38;5.97;;;;;;;21.49;44.11;97314.34;10378582;28;20079;-56
2022/09/12 14:09:21;;;;;;;6.50;5.65;;;;;;;21.86;42.96;97316.84;10379274;28;20083;-55
2022/09/12 14:14:35;;;;;;;7.40;6.50;;;;;;;21.89;42.71;97316.69;10376940;28;20068;-55
2022/09/12 14:19:34;;;;;;;11.43;9.13;;;;;;;22.05;43.94;97316.75;10377190;28;20088;-55
2022/09/12 14:24:33;;;;;;;7.78;6.97;;;;;;;22.14;43.47;97313.59;10377741;28;20072;-55
2022/09/12 14:29:33;;;;;;;9.40;7.55;;;;;;;22.16;44.46;97317.00;10377593;28;20032;-55
2022/09/12 14:34:32;;;;;;;8.80;7.90;;;;;;;22.22;46.08;97327.22;10377787;28;20071;-55
2022/09/12 14:39:43;;;;;;;12.05;6.82;;;;;;;22.00;43.25;97326.72;10376768;28;20044;-55
2022/09/12 14:44:59;;;;;;;8.48;7.57;;;;;;;22.02;44.35;97328.31;10377100;28;20079;-55
2022/09/12 14:49:59;;;;;;;9.48;7.03;;;;;;;22.18;45.08;97308.06;10376411;28;20573;-55
2022/09/12 14:55:00;;;;;;;10.20;7.45;;;;;;;22.28;45.81;97318.13;10376018;28;20069;-55
2022/09/12 15:00:11;;;;;;;10.05;7.65;;;;;;;22.35;46.22;97322.13;10375163;28;20075;-55
2022/09/12 15:05:10;;;;;;;9.77;7.72;;;;;;;22.35;46.36;97320.34;10398123;28;20478;-55
2022/09/12 15:10:25;;;;;;;8.25;7.45;;;;;;;22.16;44.89;97314.38;10417280;28;20483;-55
2022/09/12 15:15:24;;;;;;;7.75;6.93;;;;;;;21.99;44.40;97319.69;10395963;28;20108;-55
2022/09/12 15:20:23;;;;;;;8.88;7.10;;;;;;;22.00;43.98;97318.78;10374261;28;20478;-55
2022/09/12 15:25:22;;;;;;;8.80;7.50;;;;;;;21.95;45.25;97309.28;10353561;28;20505;-55
2022/09/12 15:30:21;;;;;;;8.65;7.75;;;;;;;21.95;46.76;97327.78;10357871;28;20427;-55
2022/09/12 15:35:24;;;;;;;11.43;7.90;;;;;;;21.68;46.24;97324.78;10377028;28;20531;-55
2022/09/12 15:40:25;;;;;;;9.77;7.75;;;;;;;21.40;47.25;97322.75;10414820;28;20084;-56
2022/09/12 15:45:28;;;;;;;7.63;6.82;;;;;;;20.76;48.69;97326.81;10414934;28;20072;-55
2022/09/12 15:50:27;;;;;;;8.52;7.63;;;;;;;20.13;48.77;97329.75;10414661;28;20574;-55
2022/09/12 15:55:31;;;;;;;9.90;8.27;;;;;;;20.08;48.74;97324.72;10411151;28;20071;-57
2022/09/12 16:00:30;;;;;;;10.20;8.60;;;;;;;19.76;49.11;97336.69;10374159;28;20500;-55
2022/09/12 16:05:29;;;;;;;13.27;9.00;;;;;;;19.68;49.31;97330.94;10372525;28;20505;-55
2022/09/12 16:10:29;;;;;;;10.50;8.93;;;;;;;19.69;49.60;97343.16;10370651;28;20912;-55
2022/09/12 16:15:28;;;;;;;11.52;8.93;;;;;;;19.48;50.52;97337.03;10373275;28;20075;-56
2022/09/12 16:20:27;;;;;;;10.23;9.23;;;;;;;19.56;50.20;97334.97;10386335;28;20046;-56
2022/09/12 16:25:26;;;;;;;9.65;8.65;;;;;;;19.67;52.44;97342.38;10384597;28;20472;-55
2022/09/12 16:30:25;;;;;;;11.15;9.25;;;;;;;19.65;54.01;97338.97;10373031;28;20135;-55
2022/09/12 16:35:24;;;;;;;12.20;9.18;;;;;;;19.65;55.01;97349.50;10373787;28;20052;-55
2022/09/12 16:40:23;;;;;;;11.10;9.05;;;;;;;19.56;56.14;97352.53;10371828;28;20028;-55
2022/09/12 16:45:22;;;;;;;14.98;10.38;;;;;;;19.41;57.54;97357.47;10372139;28;20069;-56
2022/09/12 16:50:21;;;;;;;11.32;10.13;;;;;;;19.20;57.81;97363.66;10413524;28;20056;-56
2022/09/12 16:55:21;;;;;;;12.38;10.40;;;;;;;18.93;58.72;97360.41;10412174;28;20064;-56
2022/09/12 17:00:21;;;;;;;13.10;11.02;;;;;;;18.73;59.45;97364.69;10412803;28;20072;-56
2022/09/12 17:05:20;;;;;;;14.93;11.13;;;;;;;18.44;60.63;97383.34;10413333;28;20060;-56
2022/09/12 17:10:19;;;;;;;18.30;13.10;;;;;;;18.13;62.76;97390.63;10375494;28;20076;-56
2022/09/12 17:15:18;;;;;;;9.23;8.25;;;;;;;17.94;63.58;97397.44;10371918;28;20027;-55
2022/09/12 17:20:17;;;;;;;16.00;10.65;;;;;;;17.75;62.95;97400.72;10372134;28;20029;-55
2022/09/12 17:25:16;;;;;;;13.63;11.50;;;;;;;17.69;62.82;97410.56;10371757;28;20564;-55
2022/09/12 17:30:15;;;;;;;14.27;11.18;;;;;;;17.61;63.44;97402.09;10371771;28;20091;-55
2022/09/12 17:35:14;;;;;;;20.17;14.15;;;;;;;17.51;64.05;97406.81;10371272;28;20032;-55
2022/09/12 17:40:13;;;;;;;19.98;13.80;;;;;;;17.37;65.35;97409.91;10371334;28;20542;-55
2022/09/12 17:45:12;;;;;;;19.98;14.98;;;;;;;17.18;66.62;97417.53;10371765;28;20575;-55
2022/09/12 17:50:11;;;;;;;15.82;13.98;;;;;;;17.01;67.27;97427.72;10372348;28;20491;-55
2022/09/12 17:55:11;;;;;;;;;;;;;;;16.87;68.17;97421.13;10379458;28;20416;-55
2022/09/12 18:00:10;;;;;;;14.27;12.45;;;;;;;16.75;67.90;97426.75;10378138;28;19955;-55
2022/09/12 18:05:09;;;;;;;17.83;13.45;;;;;;;16.62;68.13;97436.72;10378481;28;20065;-55
2022/09/12 18:10:08;;;;;;;;;;;;;;;16.51;68.47;97442.31;10360236;28;20032;-55
2022/09/12 18:15:07;;;;;;;16.03;12.23;;;;;;;16.39;68.52;97439.19;10378104;28;19909;-56
2022/09/12 18:20:07;;;;;;;15.40;12.68;;;;;;;16.28;68.65;97432.50;10377078;28;20497;-55
2022/09/12 18:25:06;;;;;;;17.88;13.88;;;;;;;16.17;69.13;97444.19;10375294;28;20057;-56
2022/09/12 18:30:06;;;;;;;21.70;14.50;;;;;;;16.06;69.72;97453.19;10377306;28;20063;-55
2022/09/12 18:35:06;;;;;;;16.85;13.23;;;;;;;15.92;70.92;97444.84;10390388;28;20538;-55
2022/09/12 18:40:05;;;;;;;14.15;11.77;;;;;;;15.79;70.78;97460.03;10417369;28;20079;-55
2022/09/12 18:45:05;;;;;;;12.93;11.13;;;;;;;15.67;70.81;97455.97;10418030;28;20463;-55
2022/09/12 18:50:05;;;;;;;11.80;10.60;;;;;;;15.62;70.93;97467.41;10404395;28;20080;-55
2022/09/12 18:55:04;;;;;;;12.93;10.63;;;;;;;15.59;71.34;97457.91;10376535;28;20068;-56
2022/09/12 19:00:04;;;;;;;;;;;;;;;15.61;71.27;97463.94;10367539;28;20467;-55
2022/09/12 19:05:03;;;;;;;12.43;10.55;;;;;;;15.58;71.81;97468.41;10393515;28;19967;-55
2022/09/12 19:10:02;;;;;;;11.93;10.35;;;;;;;15.56;71.91;97460.59;10375175;28;20068;-55
2022/09/12 19:15:03;;;;;;;;;;;;;;;15.60;72.06;97466.59;10375200;28;20065;-55
2022/09/12 19:20:02;;;;;;;11.57;9.50;;;;;;;15.56;71.90;97447.53;10376193;28;20390;-55
2022/09/12 19:25:01;;;;;;;11.27;9.70;;;;;;;15.60;72.17;97459.63;10374415;28;20080;-55
2022/09/12 19:30:00;;;;;;;;;;;;;;;15.63;71.97;97461.31;10374820;28;20582;-55
2022/09/12 19:34:59;;;;;;;9.90;8.90;;;;;;;15.65;71.73;97465.59;10371705;28;20375;-55
2022/09/12 19:39:58;;;;;;;;;;;;;;;15.70;71.85;97467.25;10374576;28;20098;-56
2022/09/12 19:44:57;;;;;;;9.88;8.88;;;;;;;15.72;72.20;97474.16;10374760;28;19964;-55
2022/09/12 19:49:56;;;;;;;;;;;;;;;15.74;71.98;97480.22;10373222;28;20051;-55
2022/09/12 19:54:54;;;;;;;12.63;9.63;;;;;;;15.75;71.65;97475.81;10373757;28;19963;-55
2022/09/12 19:59:54;;;;;;;;;;;;;;;15.78;71.59;97478.34;10374493;28;20120;-55
2022/09/12 20:04:54;;;;;;;11.80;8.73;;;;;;;15.80;71.64;97476.59;10373423;28;20399;-55
2022/09/12 20:09:54;;;;;;;10.48;8.85;;;;;;;15.80;71.67;97477.44;10370262;28;20315;-55
2022/09/12 20:14:53;;;;;;;9.95;8.95;;;;;;;15.80;72.19;97477.44;10372440;28;20531;-56
2022/09/12 20:19:51;;;;;;;;;;;;;;;15.81;72.45;97480.91;10374011;28;20568;-56
2022/09/12 20:24:50;;;;;;;10.73;9.63;;;;;;;15.78;72.97;97473.97;10373262;28;20459;-56
2022/09/12 20:29:51;;;;;;;;;;;;;;;15.74;73.82;97468.84;10393254;28;20500;-56
2022/09/12 20:34:50;;;;;;;12.57;9.43;;;;;;;15.61;74.13;97461.34;10376854;28;20398;-56
2022/09/12 20:39:49;;;;;;;12.60;9.77;;;;;;;15.57;73.80;97454.47;10413467;28;20076;-56
2022/09/12 20:44:48;;;;;;;10.52;9.02;;;;;;;15.62;73.42;97463.06;10413212;28;20083;-56
2022/09/12 20:49:47;;;;;;;;;;;;;;;15.56;73.54;97465.84;10414230;28;20385;-56
2022/09/12 20:54:46;;;;;;;14.18;9.43;;;;;;;15.45;74.10;97486.16;10413648;28;19909;-56
2022/09/12 20:59:45;;;;;;;12.63;11.38;;;;;;;15.31;75.64;97481.25;10412184;28;20039;-56
2022/09/12 21:04:44;;;;;;;;;;;;;;;15.18;77.00;97477.25;10414246;28;20114;-56
2022/09/12 21:09:43;;;;;;;13.10;11.70;;;;;;;15.06;77.51;97486.25;10378078;28;20364;-56
2022/09/12 21:14:42;;;;;;;;;;;;;;;14.98;77.90;97490.78;10371408;28;20547;-56
2022/09/12 21:19:41;;;;;;;17.13;13.37;;;;;;;14.84;78.85;97478.00;10371868;28;19931;-56
2022/09/12 21:24:39;;;;;;;;;;;;;;;14.71;80.11;97485.28;10374556;28;20045;-56
2022/09/12 21:29:38;;;;;;;16.70;13.48;;;;;;;14.58;80.63;97483.78;10379777;28;19966;-56
2022/09/12 21:34:40;;;;;;;;;;;;;;;14.47;81.42;97475.31;10379859;28;20076;-56
2022/09/12 21:39:39;;;;;;;18.75;14.82;;;;;;;14.39;81.53;97472.88;10379049;28;20402;-56
2022/09/12 21:44:38;;;;;;;;;;;;;;;14.31;82.07;97478.25;10379119;28;20079;-56
2022/09/12 21:49:37;;;;;;;19.00;13.90;;;;;;;14.17;82.08;97475.91;10378651;28;19920;-56
2022/09/12 21:54:36;;;;;;;16.98;14.18;;;;;;;14.02;82.07;97463.16;10379017;28;20140;-56
2022/09/12 21:59:34;;;;;;;15.27;13.40;;;;;;;14.02;82.21;97484.03;10379111;28;20056;-56
2022/09/12 22:04:33;;;;;;;19.80;16.20;;;;;;;13.85;83.28;97478.28;10378207;28;20037;-56
2022/09/12 22:09:34;;;;;;;19.42;16.35;;;;;;;13.76;84.67;97479.31;10378053;28;20040;-56
2022/09/12 22:14:33;;;;;;;21.50;16.30;;;;;;;13.62;85.06;97465.66;10375766;28;20079;-56
2022/09/12 22:19:32;;;;;;;19.65;16.42;;;;;;;13.47;86.16;97466.72;10374190;28;20060;-56
2022/09/12 22:24:31;;;;;;;;;;;;;;;13.35;86.29;97473.00;10374623;28;20075;-56
2022/09/12 22:29:30;;;;;;;21.77;16.40;;;;;;;13.31;86.19;97471.38;10374301;28;19908;-56
2022/09/12 22:34:30;;;;;;;16.33;13.52;;;;;;;13.25;85.89;97474.06;10376419;28;20075;-56
2022/09/12 22:39:29;;;;;;;20.00;14.38;;;;;;;13.15;86.07;97466.41;10376388;28;20083;-56
2022/09/12 22:44:28;;;;;;;18.02;15.10;;;;;;;13.14;86.63;97482.94;10377176;28;20117;-56
2022/09/12 22:49:27;;;;;;;21.63;16.75;;;;;;;13.08;86.87;97472.59;10375844;28;20092;-56
2022/09/12 22:54:26;;;;;;;20.85;15.05;;;;;;;13.03;87.10;97471.81;10376773;28;20020;-56
2022/09/12 22:59:25;;;;;;;21.48;17.02;;;;;;;12.98;87.43;97463.22;10376245;28;20064;-56
2022/09/12 23:04:24;;;;;;;19.60;16.33;;;;;;;12.91;87.85;97467.66;10375890;28;20115;-56
2022/09/12 23:09:23;;;;;;;20.77;16.27;;;;;;;12.82;88.26;97467.78;10375940;28;20037;-56
2022/09/12 23:14:22;;;;;;;19.60;15.73;;;;;;;12.75;88.96;97470.50;10375616;28;20476;-56
2022/09/12 23:19:21;;;;;;;17.77;13.05;;;;;;;12.70;88.86;97467.97;10374851;28;20037;-56
2022/09/12 23:24:20;;;;;;;17.45;12.98;;;;;;;12.62;88.41;97470.66;10375579;28;20108;-56